CheckWX is a tool to help pilots better visualize weather data.  It is not intended as a substitute for an official pre-flight weather briefing.

07:46:47 UTC

ENHF METAR
Hammerfest Airport
Hammerfest, Norway
Current

27 mins ago

ENHF 260720Z AUTO 05008KT 9999 FEW033/// SCT039/// BKN061/// M07/M10 Q1006 RESN RMK WIND 1254FT 05016KT
Observed
Jan-26 @ 07:20 UTC
Wind
  • 050° at 8 KTS
Visibility
10,000+ meters
Flight Rules
VFR
Cloud Levels
  • Few at 3,300' AGL
  • Scattered at 3,900' AGL
  • Broken at 6,100' AGL
Temperature
-7°C / 19°F
Dewpoint
-10°C / 14°F
Humidity
79%
Altimeter
29.7" Hg
Pressure
1005.92 hPa
Previous

57 mins ago

ENHF 260650Z AUTO 05016KT 9999 BR FEW004/// BKN026/// M07/M09 Q1006 RMK WIND 1254FT 05018KT
Observed
Jan-26 @ 06:50 UTC
Wind
  • 050° at 16 KTS
Visibility
10,000+ meters
Flight Rules
MVFR
Conditions
Mist
Cloud Levels
  • Few at 400' AGL
  • Broken at 2,600' AGL
Temperature
-7°C / 19°F
Dewpoint
-9°C / 16°F
Humidity
86%
Altimeter
29.7" Hg
Pressure
1005.92 hPa
Previous

1 hour ago

ENHF 260620Z AUTO 02016KT 2200 SG FEW021/// BKN041/// BKN053/// M07/M10 Q1005 RESN RMK WIND 1254FT 02021KT
Observed
Jan-26 @ 06:20 UTC
Wind
  • 020° at 16 KTS
Visibility
2,200 meters
Flight Rules
IFR
Conditions
Snow grains
Cloud Levels
  • Few at 2,100' AGL
  • Broken at 4,100' AGL
  • Broken at 5,300' AGL
Temperature
-7°C / 19°F
Dewpoint
-10°C / 14°F
Humidity
79%
Altimeter
29.68" Hg
Pressure
1004.92 hPa